Terminal Aerodrome Forecast
Issued by NWS Cleveland, OH

Home | Current Version | Previous Version | Graphics & Text | Print | Product List | Glossary Off
Versions: 1 2 3 4 5 6 7 8 9 10 11 12 13 14 15 16 17 18 19

454
FTUS41 KCLE 071943 AAA
TAFERI
TAF AMD
KERI 071943Z 0720/0818 20012KT P6SM BKN250
     FM080000 18008KT P6SM BKN120
     FM080600 16005KT P6SM SCT045 OVC100
      TEMPO 0806/0810 BKN045
     FM081000 16010KT P6SM OVC045
     FM081400 16012KT P6SM SCT025 OVC045=

USA.gov is the U.S. government's official web portal to all federal, state and local government web resources and services.